Time;durP1;ratioP1;P1;durP2;ratioP2;P2;SDS_P1;SDS_P2;PMS_P1;PMS_P2;Temp;Humidity;BMP_temperature;BMP_pressure;BME280_temperature;BME280_humidity;BME280_pressure;Samples;Min_cycle;Max_cycle;Signal;HPM_P1;HPM_P2
2023/12/16 00:02:18;;;;;;;12.43;2.10;;;;;;;;;;5021080;28;20194;-69
2023/12/16 00:04:44;;;;;;;9.33;2.33;;;;;;;;;;5027141;28;20598;-68
2023/12/16 00:07:09;;;;;;;9.40;2.20;;;;;;;;;;5019820;28;20178;-68
2023/12/16 00:09:34;;;;;;;6.50;2.53;;;;;;;;;;5011526;28;20642;-68
2023/12/16 00:11:59;;;;;;;4.17;1.93;;;;;;;;;;5010055;28;20598;-68
2023/12/16 00:14:24;;;;;;;7.40;2.60;;;;;;;;;;5027541;28;20766;-69
2023/12/16 00:16:50;;;;;;;7.50;2.10;;;;;;;;;;5032899;28;20186;-69
2023/12/16 00:19:15;;;;;;;7.10;2.10;;;;;;;;;;5031056;28;20189;-68
2023/12/16 00:21:40;;;;;;;10.23;2.53;;;;;;;;;;5032252;28;20186;-68
2023/12/16 00:24:08;;;;;;;14.10;2.80;;;;;;;;;;5030186;28;20202;-68
2023/12/16 00:26:33;;;;;;;10.40;2.17;;;;;;;;;;5030080;28;20669;-69
2023/12/16 00:28:58;;;;;;;12.87;2.20;;;;;;;;;;5022776;28;20171;-68
2023/12/16 00:31:24;;;;;;;12.60;2.03;;;;;;;;;;5028073;28;20667;-68
2023/12/16 00:33:49;;;;;;;5.73;2.00;;;;;;;;;;5029072;28;20204;-68
2023/12/16 00:36:14;;;;;;;6.17;1.73;;;;;;;;;;5028866;28;20193;-69
2023/12/16 00:38:40;;;;;;;5.57;1.90;;;;;;;;;;5027840;28;20653;-68
2023/12/16 00:41:05;;;;;;;13.93;2.70;;;;;;;;;;5027849;28;20202;-68
2023/12/16 00:43:31;;;;;;;7.77;2.17;;;;;;;;;;5032107;22;20698;-64
2023/12/16 00:45:56;;;;;;;5.57;2.30;;;;;;;;;;5008061;28;20175;-66
2023/12/16 00:48:21;;;;;;;7.60;2.17;;;;;;;;;;5001374;28;20230;-67
2023/12/16 00:50:47;;;;;;;5.63;2.07;;;;;;;;;;5009685;28;20245;-65
2023/12/16 00:53:12;;;;;;;9.77;2.87;;;;;;;;;;5010325;28;20207;-67
2023/12/16 00:55:40;;;;;;;9.30;2.50;;;;;;;;;;5010770;28;20213;-67
2023/12/16 00:58:05;;;;;;;7.43;2.03;;;;;;;;;;5011037;28;20206;-67
2023/12/16 01:00:30;;;;;;;15.10;3.83;;;;;;;;;;5007081;28;20233;-67
2023/12/16 01:02:58;;;;;;;9.30;2.33;;;;;;;;;;5005189;28;20634;-68
2023/12/16 01:05:23;;;;;;;8.40;2.07;;;;;;;;;;5003479;28;20175;-67
2023/12/16 01:07:48;;;;;;;10.20;3.07;;;;;;;;;;5004171;28;20175;-67
2023/12/16 01:10:14;;;;;;;8.30;2.00;;;;;;;;;;5009587;28;20608;-68
2023/12/16 01:12:39;;;;;;;7.13;2.23;;;;;;;;;;5011179;28;20179;-67
2023/12/16 01:15:04;;;;;;;11.30;3.33;;;;;;;;;;5007985;28;20515;-67
2023/12/16 01:17:30;;;;;;;7.87;1.80;;;;;;;;;;5010084;28;20229;-67
2023/12/16 01:19:55;;;;;;;15.53;2.60;;;;;;;;;;5003652;28;20268;-67
2023/12/16 01:22:20;;;;;;;10.77;2.53;;;;;;;;;;5005740;28;20183;-65
2023/12/16 01:24:45;;;;;;;12.00;2.57;;;;;;;;;;5004419;28;20205;-67
2023/12/16 01:27:10;;;;;;;7.77;2.20;;;;;;;;;;5012897;28;20549;-65
2023/12/16 01:29:36;;;;;;;9.63;2.47;;;;;;;;;;5006325;28;20544;-66
2023/12/16 01:32:02;;;;;;;8.27;2.60;;;;;;;;;;5010752;28;20544;-67
2023/12/16 01:34:28;;;;;;;9.97;2.67;;;;;;;;;;5006799;28;20313;-68
2023/12/16 01:36:53;;;;;;;9.83;3.00;;;;;;;;;;5010466;28;20206;-67
2023/12/16 01:39:18;;;;;;;10.80;2.70;;;;;;;;;;5009922;28;20549;-68
2023/12/16 01:41:43;;;;;;;12.50;3.83;;;;;;;;;;5016589;28;20174;-68
2023/12/16 01:44:09;;;;;;;6.80;2.60;;;;;;;;;;5008914;28;20783;-66
2023/12/16 01:46:35;;;;;;;6.43;2.40;;;;;;;;;;5006948;28;20175;-68
2023/12/16 01:49:00;;;;;;;11.83;3.27;;;;;;;;;;5009579;28;20190;-67
2023/12/16 01:51:25;;;;;;;14.80;2.93;;;;;;;;;;5010264;28;20651;-66
2023/12/16 01:53:51;;;;;;;9.20;3.37;;;;;;;;;;5010881;28;20194;-67
2023/12/16 01:56:16;;;;;;;7.60;2.43;;;;;;;;;;5009634;28;20179;-67
2023/12/16 01:58:42;;;;;;;10.70;3.53;;;;;;;;;;5012073;28;20523;-67
2023/12/16 02:01:07;;;;;;;10.23;2.33;;;;;;;;;;5015297;28;20244;-68
2023/12/16 02:03:33;;;;;;;7.30;3.10;;;;;;;;;;5008073;28;20195;-68
2023/12/16 02:05:59;;;;;;;16.00;4.40;;;;;;;;;;5013291;28;20210;-66
2023/12/16 02:08:24;;;;;;;11.40;2.63;;;;;;;;;;5010049;28;20691;-66
2023/12/16 02:10:49;;;;;;;12.10;3.50;;;;;;;;;;5006544;28;20171;-68
2023/12/16 02:13:15;;;;;;;12.77;3.80;;;;;;;;;;5008472;28;20674;-67
2023/12/16 02:15:40;;;;;;;11.53;3.70;;;;;;;;;;5006399;28;20178;-67
2023/12/16 02:18:05;;;;;;;14.50;3.40;;;;;;;;;;5009268;28;20237;-67
2023/12/16 02:20:31;;;;;;;10.83;4.00;;;;;;;;;;5001724;28;20195;-65
2023/12/16 02:22:56;;;;;;;14.13;3.33;;;;;;;;;;5004559;28;20190;-66
2023/12/16 02:25:22;;;;;;;10.67;3.60;;;;;;;;;;5009441;28;20221;-66
2023/12/16 02:27:47;;;;;;;9.97;3.30;;;;;;;;;;5008086;28;20186;-65
2023/12/16 02:30:12;;;;;;;20.47;4.67;;;;;;;;;;5007749;28;20190;-67
2023/12/16 02:32:38;;;;;;;7.10;3.17;;;;;;;;;;5007496;28;20182;-67
2023/12/16 02:35:03;;;;;;;10.47;3.97;;;;;;;;;;5009110;28;20171;-67
2023/12/16 02:37:29;;;;;;;8.27;3.63;;;;;;;;;;4997918;28;20187;-67
2023/12/16 02:39:54;;;;;;;8.00;3.67;;;;;;;;;;5006954;28;20746;-66
2023/12/16 02:42:19;;;;;;;9.87;3.73;;;;;;;;;;5002181;28;20175;-67
2023/12/16 02:44:44;;;;;;;13.00;4.57;;;;;;;;;;5006244;28;20637;-66
2023/12/16 02:47:10;;;;;;;8.47;3.90;;;;;;;;;;5009276;28;20171;-67
2023/12/16 02:49:35;;;;;;;15.07;4.10;;;;;;;;;;5010374;28;20553;-67
2023/12/16 02:52:00;;;;;;;12.30;4.80;;;;;;;;;;5008970;28;20182;-68
2023/12/16 02:54:28;;;;;;;13.57;4.10;;;;;;;;;;5009933;28;20560;-67
2023/12/16 02:56:53;;;;;;;15.37;5.13;;;;;;;;;;5004121;28;20184;-68
2023/12/16 02:59:19;;;;;;;14.20;4.67;;;;;;;;;;5006973;28;20624;-68
2023/12/16 03:01:44;;;;;;;12.87;4.00;;;;;;;;;;5007625;28;20187;-67
2023/12/16 03:04:09;;;;;;;20.93;5.63;;;;;;;;;;5008146;28;20289;-67
2023/12/16 03:06:35;;;;;;;10.30;4.67;;;;;;;;;;5014483;28;20187;-67
2023/12/16 03:09:01;;;;;;;9.70;3.97;;;;;;;;;;5006955;28;20187;-68
2023/12/16 03:11:26;;;;;;;18.63;5.30;;;;;;;;;;5008429;28;20232;-67
2023/12/16 03:13:51;;;;;;;10.93;4.57;;;;;;;;;;5007823;28;20203;-68
2023/12/16 03:16:16;;;;;;;8.87;4.90;;;;;;;;;;5000713;28;20179;-65
2023/12/16 03:18:41;;;;;;;12.00;4.30;;;;;;;;;;5005231;28;20186;-67
2023/12/16 03:21:07;;;;;;;11.83;4.00;;;;;;;;;;5011282;28;20237;-67
2023/12/16 03:23:32;;;;;;;11.03;4.50;;;;;;;;;;5012321;28;20206;-66
2023/12/16 03:25:57;;;;;;;10.47;4.77;;;;;;;;;;5008869;28;20182;-67
2023/12/16 03:28:23;;;;;;;8.00;4.40;;;;;;;;;;5014410;28;20332;-66
2023/12/16 03:30:48;;;;;;;12.83;4.07;;;;;;;;;;5003710;28;20270;-67
2023/12/16 03:33:13;;;;;;;13.80;4.70;;;;;;;;;;5010762;28;20662;-66
2023/12/16 03:35:38;;;;;;;11.70;4.67;;;;;;;;;;5008049;28;20183;-66
2023/12/16 03:38:03;;;;;;;14.27;4.47;;;;;;;;;;5007677;28;20187;-67
2023/12/16 03:40:29;;;;;;;13.40;5.23;;;;;;;;;;5014976;28;20198;-67
2023/12/16 03:42:55;;;;;;;21.00;5.27;;;;;;;;;;5009772;28;20190;-67
2023/12/16 03:45:20;;;;;;;13.90;5.50;;;;;;;;;;5010479;28;20179;-66
2023/12/16 03:47:46;;;;;;;17.90;4.90;;;;;;;;;;5012514;28;20194;-66
2023/12/16 03:50:11;;;;;;;11.77;4.87;;;;;;;;;;5010893;28;20226;-67
2023/12/16 03:52:37;;;;;;;16.00;4.83;;;;;;;;;;5006214;28;20658;-66
2023/12/16 03:55:02;;;;;;;18.67;5.03;;;;;;;;;;5007136;28;20253;-66
2023/12/16 03:57:29;;;;;;;19.90;5.23;;;;;;;;;;5006291;28;20697;-67
2023/12/16 03:59:56;;;;;;;12.93;4.57;;;;;;;;;;5011330;28;20209;-64
2023/12/16 04:02:21;;;;;;;12.57;4.77;;;;;;;;;;5014662;28;20186;-66
2023/12/16 04:04:46;;;;;;;12.10;5.83;;;;;;;;;;5011916;28;20195;-67
2023/12/16 04:07:11;;;;;;;12.03;4.73;;;;;;;;;;5009860;28;20177;-67
2023/12/16 04:09:38;;;;;;;12.07;4.83;;;;;;;;;;5013771;28;20171;-66
2023/12/16 04:12:04;;;;;;;18.23;4.83;;;;;;;;;;5006800;28;20623;-67
2023/12/16 04:14:29;;;;;;;8.30;4.93;;;;;;;;;;5010791;28;20217;-66
2023/12/16 04:16:54;;;;;;;13.73;5.03;;;;;;;;;;5010838;28;20179;-67
2023/12/16 04:19:19;;;;;;;13.77;4.27;;;;;;;;;;5013099;28;20183;-67
2023/12/16 04:21:45;;;;;;;17.50;5.03;;;;;;;;;;5012829;28;20187;-67
2023/12/16 04:24:10;;;;;;;17.43;4.37;;;;;;;;;;5010419;28;20202;-67
2023/12/16 04:26:35;;;;;;;14.07;4.97;;;;;;;;;;5014554;28;20175;-67
2023/12/16 04:29:01;;;;;;;13.17;5.40;;;;;;;;;;5010799;28;20183;-66
2023/12/16 04:31:26;;;;;;;18.30;5.23;;;;;;;;;;5001577;28;20179;-66
2023/12/16 04:33:53;;;;;;;16.23;5.50;;;;;;;;;;5007485;28;20213;-67
2023/12/16 04:36:18;;;;;;;13.17;5.50;;;;;;;;;;5009497;28;20183;-66
2023/12/16 04:38:43;;;;;;;10.97;4.90;;;;;;;;;;5012507;28;20186;-67
2023/12/16 04:41:15;;;;;;;14.67;5.53;;;;;;;;;;5010371;28;20198;-67
2023/12/16 04:43:40;;;;;;;9.87;4.97;;;;;;;;;;5010945;28;20221;-67
2023/12/16 04:46:06;;;;;;;16.60;5.70;;;;;;;;;;5009108;28;20270;-67
2023/12/16 04:48:31;;;;;;;15.67;4.87;;;;;;;;;;5008987;28;20186;-66
2023/12/16 04:51:04;;;;;;;12.30;4.63;;;;;;;;;;5008948;28;20658;-66
2023/12/16 04:53:29;;;;;;;20.53;5.60;;;;;;;;;;5014791;28;20210;-66
2023/12/16 04:55:54;;;;;;;9.53;4.97;;;;;;;;;;5004846;28;20191;-67
2023/12/16 04:58:20;;;;;;;14.87;5.33;;;;;;;;;;5005278;28;20183;-66
2023/12/16 05:00:45;;;;;;;11.27;5.10;;;;;;;;;;5010629;28;20698;-67
2023/12/16 05:03:10;;;;;;;16.07;4.80;;;;;;;;;;5008799;28;20199;-65
2023/12/16 05:05:35;;;;;;;10.83;4.57;;;;;;;;;;5008072;28;20635;-67
2023/12/16 05:08:00;;;;;;;13.37;4.87;;;;;;;;;;5011126;28;20655;-66
2023/12/16 05:10:26;;;;;;;16.30;4.47;;;;;;;;;;5013894;28;20179;-68
2023/12/16 05:12:51;;;;;;;24.33;5.00;;;;;;;;;;5009930;28;20175;-67
2023/12/16 05:15:16;;;;;;;20.10;5.90;;;;;;;;;;5007446;28;20601;-67
2023/12/16 05:17:41;;;;;;;20.83;5.67;;;;;;;;;;5007863;28;20214;-67
2023/12/16 05:20:07;;;;;;;20.77;5.90;;;;;;;;;;5015209;28;20290;-65
2023/12/16 05:22:33;;;;;;;14.80;4.87;;;;;;;;;;5010180;28;20179;-66
2023/12/16 05:24:59;;;;;;;14.53;4.67;;;;;;;;;;5011055;28;20202;-66
2023/12/16 05:27:24;;;;;;;11.60;3.83;;;;;;;;;;5009097;28;20242;-68
2023/12/16 05:29:50;;;;;;;16.27;4.63;;;;;;;;;;5011215;28;20187;-66
2023/12/16 05:32:15;;;;;;;10.80;4.90;;;;;;;;;;5000746;28;20640;-67
2023/12/16 05:34:40;;;;;;;11.53;5.40;;;;;;;;;;5011492;28;20258;-67
2023/12/16 05:37:05;;;;;;;20.47;4.57;;;;;;;;;;5009120;28;20189;-67
2023/12/16 05:39:31;;;;;;;14.10;4.33;;;;;;;;;;5010262;28;20171;-67
2023/12/16 05:41:56;;;;;;;19.13;4.67;;;;;;;;;;5004819;28;20192;-67
2023/12/16 05:44:21;;;;;;;22.33;4.80;;;;;;;;;;5007651;28;20250;-67
2023/12/16 05:46:47;;;;;;;17.07;4.10;;;;;;;;;;5006653;28;20206;-68
2023/12/16 05:49:12;;;;;;;15.13;4.10;;;;;;;;;;5012381;28;20175;-67
2023/12/16 05:51:37;;;;;;;17.87;4.20;;;;;;;;;;5004868;28;20194;-67
2023/12/16 05:54:03;;;;;;;14.50;5.00;;;;;;;;;;5003608;28;20194;-67
2023/12/16 05:56:28;;;;;;;14.23;4.03;;;;;;;;;;5007148;28;20197;-67
2023/12/16 05:58:53;;;;;;;14.73;4.77;;;;;;;;;;5010522;28;20186;-68
2023/12/16 06:01:20;;;;;;;17.37;4.37;;;;;;;;;;5007633;28;20294;-67
2023/12/16 06:03:45;;;;;;;19.30;5.63;;;;;;;;;;5009589;28;20256;-66
2023/12/16 06:06:10;;;;;;;19.20;5.00;;;;;;;;;;5007200;28;20171;-67
2023/12/16 06:08:35;;;;;;;21.47;6.07;;;;;;;;;;5003380;28;20180;-67
2023/12/16 06:11:01;;;;;;;16.47;4.03;;;;;;;;;;5002106;28;20183;-67
2023/12/16 06:13:26;;;;;;;14.63;3.73;;;;;;;;;;4998049;28;20215;-67
2023/12/16 06:15:51;;;;;;;18.83;4.67;;;;;;;;;;5000750;28;20217;-68
2023/12/16 06:18:16;;;;;;;12.00;4.30;;;;;;;;;;5007891;28;20186;-67
2023/12/16 06:20:41;;;;;;;22.53;4.40;;;;;;;;;;5008998;28;20697;-67
2023/12/16 06:23:06;;;;;;;20.03;4.97;;;;;;;;;;5009458;28;20198;-67
2023/12/16 06:25:32;;;;;;;17.60;4.10;;;;;;;;;;5006484;28;20269;-67
2023/12/16 06:27:57;;;;;;;18.27;4.27;;;;;;;;;;5002634;28;20378;-67
2023/12/16 06:30:22;;;;;;;14.53;5.47;;;;;;;;;;5012221;28;20185;-66
2023/12/16 06:32:47;;;;;;;12.40;4.07;;;;;;;;;;5003207;28;20193;-67
2023/12/16 06:35:12;;;;;;;16.37;4.70;;;;;;;;;;5006592;28;20682;-66
2023/12/16 06:37:38;;;;;;;15.53;5.40;;;;;;;;;;5007648;28;20183;-67
2023/12/16 06:40:03;;;;;;;17.63;5.07;;;;;;;;;;5009950;28;20206;-67
2023/12/16 06:42:29;;;;;;;9.60;3.57;;;;;;;;;;5008300;28;20175;-68
2023/12/16 06:44:54;;;;;;;16.43;5.90;;;;;;;;;;5030386;23;20238;-67
2023/12/16 06:47:20;;;;;;;22.83;5.63;;;;;;;;;;5007783;28;20186;-67
2023/12/16 06:49:45;;;;;;;15.90;4.00;;;;;;;;;;5010265;28;20179;-67
2023/12/16 06:52:10;;;;;;;26.43;5.50;;;;;;;;;;5000397;28;20209;-68
2023/12/16 06:54:35;;;;;;;17.17;5.03;;;;;;;;;;5006168;28;20714;-69
2023/12/16 06:57:00;;;;;;;22.40;5.27;;;;;;;;;;5004623;28;20189;-68
2023/12/16 06:59:26;;;;;;;13.10;4.17;;;;;;;;;;5010541;28;20181;-68
2023/12/16 07:01:51;;;;;;;15.63;5.73;;;;;;;;;;5003910;28;20179;-69
2023/12/16 07:04:16;;;;;;;9.20;3.70;;;;;;;;;;5007934;28;20567;-68
2023/12/16 07:06:41;;;;;;;21.33;4.53;;;;;;;;;;5012578;28;20253;-69
2023/12/16 07:09:07;;;;;;;18.03;4.77;;;;;;;;;;5012933;28;20597;-69
2023/12/16 07:11:34;;;;;;;20.30;5.27;;;;;;;;;;5012236;28;20184;-69
2023/12/16 07:13:59;;;;;;;13.40;4.80;;;;;;;;;;5012787;28;20233;-68
2023/12/16 07:16:24;;;;;;;13.73;4.40;;;;;;;;;;5010490;28;20219;-68
2023/12/16 07:18:50;;;;;;;14.80;4.57;;;;;;;;;;5013674;28;20527;-68
2023/12/16 07:21:15;;;;;;;11.83;4.30;;;;;;;;;;5008603;28;20214;-67
2023/12/16 07:23:40;;;;;;;16.13;5.53;;;;;;;;;;5009270;28;20202;-68
2023/12/16 07:26:05;;;;;;;12.37;4.87;;;;;;;;;;5010411;28;22392;-68
2023/12/16 07:28:30;;;;;;;12.60;4.30;;;;;;;;;;5013633;28;20183;-68
2023/12/16 07:30:57;;;;;;;15.50;4.57;;;;;;;;;;5010674;28;20264;-68
2023/12/16 07:33:22;;;;;;;12.93;4.10;;;;;;;;;;5011837;28;20297;-69
2023/12/16 07:35:48;;;;;;;16.20;4.57;;;;;;;;;;5011616;28;20919;-68
2023/12/16 07:38:13;;;;;;;14.77;3.93;;;;;;;;;;5004829;28;20579;-68
2023/12/16 07:40:38;;;;;;;11.57;3.93;;;;;;;;;;5004902;28;20213;-68
2023/12/16 07:43:04;;;;;;;11.27;3.50;;;;;;;;;;5007942;28;20558;-68
2023/12/16 07:45:29;;;;;;;18.93;4.27;;;;;;;;;;5010612;28;20230;-67
2023/12/16 07:47:54;;;;;;;13.73;4.80;;;;;;;;;;5013820;28;20178;-68
2023/12/16 07:50:20;;;;;;;14.03;4.07;;;;;;;;;;5007066;28;20329;-67
2023/12/16 07:52:46;;;;;;;18.27;4.57;;;;;;;;;;5010537;28;20179;-68
2023/12/16 07:55:12;;;;;;;25.30;4.40;;;;;;;;;;5007837;28;20205;-66
2023/12/16 07:57:37;;;;;;;15.83;4.93;;;;;;;;;;5003370;28;20187;-66
2023/12/16 08:00:02;;;;;;;18.03;4.73;;;;;;;;;;5011563;28;20293;-68
2023/12/16 08:02:27;;;;;;;20.07;5.13;;;;;;;;;;5002851;28;20195;-67
2023/12/16 08:04:53;;;;;;;11.97;4.37;;;;;;;;;;5008319;28;20221;-68
2023/12/16 08:07:18;;;;;;;10.83;4.23;;;;;;;;;;5012013;28;20241;-68
2023/12/16 08:09:43;;;;;;;14.30;4.60;;;;;;;;;;5012220;28;20626;-66
2023/12/16 08:12:09;;;;;;;11.23;3.90;;;;;;;;;;5012431;28;20218;-66
2023/12/16 08:14:34;;;;;;;16.03;4.60;;;;;;;;;;5012258;28;20654;-67
2023/12/16 08:17:00;;;;;;;15.07;4.73;;;;;;;;;;5011902;28;20179;-68
2023/12/16 08:19:25;;;;;;;13.43;5.70;;;;;;;;;;5010187;28;20184;-68
2023/12/16 08:21:50;;;;;;;13.33;3.57;;;;;;;;;;5012350;28;20201;-69
2023/12/16 08:24:15;;;;;;;15.73;3.80;;;;;;;;;;5012234;28;20195;-69
2023/12/16 08:26:40;;;;;;;13.17;3.67;;;;;;;;;;5012204;28;20562;-67
2023/12/16 08:29:06;;;;;;;13.97;5.20;;;;;;;;;;5010948;28;20191;-67
2023/12/16 08:31:31;;;;;;;19.90;5.33;;;;;;;;;;5010990;28;20215;-67
2023/12/16 08:33:56;;;;;;;19.73;6.33;;;;;;;;;;5012061;28;20198;-68
2023/12/16 08:36:21;;;;;;;14.67;4.30;;;;;;;;;;5012463;28;20186;-68
2023/12/16 08:38:47;;;;;;;16.63;4.77;;;;;;;;;;5010025;28;20238;-67
2023/12/16 08:41:12;;;;;;;12.10;4.03;;;;;;;;;;5010351;28;20198;-67
2023/12/16 08:43:37;;;;;;;16.20;5.33;;;;;;;;;;5011526;28;20203;-67
2023/12/16 08:46:03;;;;;;;11.07;3.80;;;;;;;;;;5011559;28;20175;-67
2023/12/16 08:48:28;;;;;;;18.17;4.27;;;;;;;;;;5013612;28;20631;-67
2023/12/16 08:50:56;;;;;;;12.30;4.53;;;;;;;;;;5011197;28;20266;-68
2023/12/16 08:53:22;;;;;;;14.33;4.17;;;;;;;;;;5002940;28;20750;-68
2023/12/16 08:55:47;;;;;;;14.63;4.57;;;;;;;;;;5010593;28;20290;-68
2023/12/16 08:58:12;;;;;;;13.13;4.60;;;;;;;;;;5011471;28;20175;-68
2023/12/16 09:00:37;;;;;;;18.37;5.37;;;;;;;;;;5010656;28;20205;-67
2023/12/16 09:03:02;;;;;;;16.47;4.50;;;;;;;;;;5010783;28;20474;-67
2023/12/16 09:05:31;;;;;;;15.10;4.20;;;;;;;;;;5011556;28;20175;-68
2023/12/16 09:07:56;;;;;;;19.40;5.10;;;;;;;;;;5011301;28;20175;-67
2023/12/16 09:10:21;;;;;;;14.40;5.60;;;;;;;;;;5008246;28;20233;-67
2023/12/16 09:12:47;;;;;;;17.07;5.47;;;;;;;;;;5011545;28;20182;-67
2023/12/16 09:15:12;;;;;;;12.77;4.20;;;;;;;;;;5009619;28;20207;-67
2023/12/16 09:17:38;;;;;;;18.53;5.70;;;;;;;;;;5010094;28;20182;-67
2023/12/16 09:20:03;;;;;;;19.87;4.70;;;;;;;;;;5009226;28;20202;-69
2023/12/16 09:22:28;;;;;;;12.63;4.47;;;;;;;;;;5010733;28;20171;-68
2023/12/16 09:24:53;;;;;;;10.17;4.20;;;;;;;;;;5006845;28;20202;-67
2023/12/16 09:27:19;;;;;;;20.80;5.30;;;;;;;;;;5009452;28;20186;-67
2023/12/16 09:29:44;;;;;;;9.33;4.10;;;;;;;;;;5005426;28;20643;-67
2023/12/16 09:32:09;;;;;;;12.13;4.73;;;;;;;;;;5008960;28;20213;-68
2023/12/16 09:34:35;;;;;;;17.07;5.13;;;;;;;;;;5004593;28;20202;-67
2023/12/16 09:37:00;;;;;;;17.57;5.50;;;;;;;;;;5007763;28;20661;-68
2023/12/16 09:39:25;;;;;;;16.33;5.03;;;;;;;;;;5010284;28;20179;-68
2023/12/16 09:41:51;;;;;;;13.27;4.53;;;;;;;;;;5009345;28;20203;-67
2023/12/16 09:44:19;;;;;;;18.53;5.33;;;;;;;;;;5009171;28;20211;-68
2023/12/16 09:46:44;;;;;;;10.23;4.87;;;;;;;;;;5010760;28;20557;-68
2023/12/16 09:49:10;;;;;;;13.83;5.60;;;;;;;;;;5005341;28;20179;-68
2023/12/16 09:51:35;;;;;;;18.43;6.50;;;;;;;;;;5001622;28;20179;-68
2023/12/16 09:54:01;;;;;;;16.53;4.80;;;;;;;;;;5009329;28;20282;-67
2023/12/16 09:56:27;;;;;;;19.33;6.13;;;;;;;;;;5003780;28;20183;-68
2023/12/16 09:58:53;;;;;;;18.73;5.70;;;;;;;;;;5010894;28;20202;-67
2023/12/16 10:01:19;;;;;;;16.53;5.77;;;;;;;;;;5010088;28;20233;-68
2023/12/16 10:03:45;;;;;;;16.13;6.40;;;;;;;;;;5009544;28;20199;-68
2023/12/16 10:06:11;;;;;;;16.63;6.17;;;;;;;;;;5005537;28;20179;-68
2023/12/16 10:08:36;;;;;;;18.53;5.43;;;;;;;;;;5008112;28;20252;-69
2023/12/16 10:11:02;;;;;;;14.93;6.57;;;;;;;;;;5017981;28;20186;-69
2023/12/16 10:13:28;;;;;;;22.37;6.43;;;;;;;;;;5008447;28;20606;-69
2023/12/16 10:15:54;;;;;;;24.83;7.03;;;;;;;;;;5004007;28;20205;-68
2023/12/16 10:18:19;;;;;;;15.53;8.17;;;;;;;;;;5008004;28;20651;-67
2023/12/16 10:20:44;;;;;;;25.57;7.63;;;;;;;;;;5006037;28;20213;-68
2023/12/16 10:23:11;;;;;;;16.60;8.00;;;;;;;;;;5007067;28;20250;-68
2023/12/16 10:25:36;;;;;;;14.83;6.33;;;;;;;;;;5009616;28;20198;-66
2023/12/16 10:28:02;;;;;;;23.77;8.17;;;;;;;;;;5003909;28;20171;-67
2023/12/16 10:30:27;;;;;;;24.00;8.10;;;;;;;;;;5008513;28;20264;-68
2023/12/16 10:32:56;;;;;;;15.70;7.47;;;;;;;;;;5008094;28;20202;-67
2023/12/16 10:35:23;;;;;;;16.23;6.47;;;;;;;;;;5011352;28;20198;-68
2023/12/16 10:37:51;;;;;;;15.63;8.60;;;;;;;;;;5003983;28;20646;-68
2023/12/16 10:40:17;;;;;;;22.30;6.87;;;;;;;;;;5004814;28;20207;-68
2023/12/16 10:42:42;;;;;;;24.63;7.67;;;;;;;;;;5012294;28;20181;-68
2023/12/16 10:45:09;;;;;;;19.43;8.23;;;;;;;;;;5010335;28;20655;-68
2023/12/16 10:47:34;;;;;;;22.70;7.80;;;;;;;;;;5012317;28;20546;-69
2023/12/16 10:50:01;;;;;;;26.73;9.97;;;;;;;;;;5004944;28;20176;-68
2023/12/16 10:52:27;;;;;;;23.03;8.03;;;;;;;;;;5005708;28;20206;-69
2023/12/16 10:54:59;;;;;;;28.90;7.03;;;;;;;;;;5012761;28;20194;-69
2023/12/16 10:57:31;;;;;;;20.67;7.67;;;;;;;;;;5011842;28;20183;-68
2023/12/16 11:00:04;;;;;;;25.10;7.47;;;;;;;;;;5006649;28;20257;-69
2023/12/16 11:02:30;;;;;;;30.70;8.27;;;;;;;;;;5013892;28;20171;-68
2023/12/16 11:04:58;;;;;;;16.43;7.90;;;;;;;;;;5009716;28;20662;-68
2023/12/16 11:07:25;;;;;;;20.47;7.70;;;;;;;;;;5007238;28;20183;-68
2023/12/16 11:09:51;;;;;;;14.07;6.87;;;;;;;;;;5009551;28;20175;-67
2023/12/16 11:12:16;;;;;;;20.67;7.67;;;;;;;;;;5008583;28;20183;-67
2023/12/16 11:14:41;;;;;;;16.83;8.37;;;;;;;;;;5007236;28;20196;-67
2023/12/16 11:17:23;;;;;;;26.63;8.37;;;;;;;;;;5011471;28;20651;-67
2023/12/16 11:19:55;;;;;;;20.83;8.67;;;;;;;;;;5003168;28;20257;-68
2023/12/16 11:22:20;;;;;;;23.67;9.83;;;;;;;;;;5009815;28;20214;-68
2023/12/16 11:24:46;;;;;;;21.07;8.23;;;;;;;;;;5007956;28;20678;-67
2023/12/16 11:27:14;;;;;;;21.90;10.17;;;;;;;;;;5010445;28;20631;-67
2023/12/16 11:29:41;;;;;;;19.67;9.93;;;;;;;;;;5007889;28;20221;-66
2023/12/16 11:32:06;;;;;;;24.00;10.00;;;;;;;;;;5013955;28;20229;-68
2023/12/16 11:34:41;;;;;;;21.53;10.13;;;;;;;;;;5010408;28;20867;-68
2023/12/16 11:37:06;;;;;;;23.97;10.40;;;;;;;;;;5005411;28;20213;-68
2023/12/16 11:39:35;;;;;;;21.67;9.10;;;;;;;;;;5010619;28;20433;-68
2023/12/16 11:42:00;;;;;;;23.53;9.13;;;;;;;;;;5011540;28;20697;-68
2023/12/16 11:44:44;;;;;;;22.13;10.90;;;;;;;;;;5011942;28;20206;-68
2023/12/16 11:47:17;;;;;;;20.60;10.17;;;;;;;;;;5007289;28;20171;-68
2023/12/16 11:49:42;;;;;;;23.60;10.27;;;;;;;;;;5011402;28;20262;-68
2023/12/16 11:52:07;;;;;;;24.47;9.43;;;;;;;;;;5008419;28;20274;-67
2023/12/16 11:54:32;;;;;;;31.50;10.70;;;;;;;;;;5008332;28;20228;-68
2023/12/16 11:56:57;;;;;;;23.83;11.57;;;;;;;;;;5005381;28;20608;-68
2023/12/16 11:59:23;;;;;;;25.63;10.47;;;;;;;;;;5007201;28;20190;-68
2023/12/16 12:01:48;;;;;;;22.37;10.57;;;;;;;;;;5012359;28;20202;-68
2023/12/16 12:04:13;;;;;;;20.93;9.83;;;;;;;;;;5011045;28;20194;-68
2023/12/16 12:06:40;;;;;;;20.47;9.90;;;;;;;;;;5007184;28;20182;-68
2023/12/16 12:09:05;;;;;;;26.10;10.03;;;;;;;;;;5013301;28;20225;-68
2023/12/16 12:11:30;;;;;;;23.30;10.40;;;;;;;;;;4995877;28;20181;-69
2023/12/16 12:13:56;;;;;;;22.80;10.97;;;;;;;;;;5012214;28;20214;-68
2023/12/16 12:16:21;;;;;;;21.50;10.60;;;;;;;;;;5005042;28;20199;-67
2023/12/16 12:18:47;;;;;;;16.93;9.90;;;;;;;;;;5009254;28;20237;-66
2023/12/16 12:21:12;;;;;;;18.07;9.60;;;;;;;;;;5010096;28;20194;-69
2023/12/16 12:23:38;;;;;;;22.77;9.87;;;;;;;;;;5007918;28;20261;-68
2023/12/16 12:26:03;;;;;;;20.20;10.10;;;;;;;;;;5005518;28;20250;-68
2023/12/16 12:28:29;;;;;;;19.63;9.20;;;;;;;;;;4999905;28;20283;-67
2023/12/16 12:31:04;;;;;;;19.67;9.63;;;;;;;;;;5008106;28;20183;-67
2023/12/16 12:33:30;;;;;;;21.77;10.07;;;;;;;;;;5010156;28;20629;-68
2023/12/16 12:35:56;;;;;;;20.57;9.20;;;;;;;;;;5010795;28;20179;-68
2023/12/16 12:38:22;;;;;;;17.60;8.33;;;;;;;;;;5008683;28;20672;-68
2023/12/16 12:40:57;;;;;;;14.43;8.93;;;;;;;;;;5009364;28;20203;-68
2023/12/16 12:43:29;;;;;;;21.03;8.40;;;;;;;;;;5008956;28;20195;-68
2023/12/16 12:46:05;;;;;;;25.10;9.30;;;;;;;;;;5008994;28;20194;-68
2023/12/16 12:48:31;;;;;;;17.90;9.27;;;;;;;;;;5007961;28;20642;-68
2023/12/16 12:51:23;;;;;;;23.80;8.00;;;;;;;;;;5001698;28;20190;-67
2023/12/16 12:53:56;;;;;;;17.10;8.13;;;;;;;;;;5002419;28;20212;-67
2023/12/16 12:56:21;;;;;;;15.53;7.93;;;;;;;;;;5008935;28;20231;-68
2023/12/16 12:58:46;;;;;;;18.87;8.43;;;;;;;;;;5006434;28;20659;-67
2023/12/16 13:01:13;;;;;;;13.63;7.63;;;;;;;;;;5005933;28;20198;-70
2023/12/16 13:03:38;;;;;;;20.00;9.00;;;;;;;;;;5001055;28;20195;-68
2023/12/16 13:06:03;;;;;;;10.83;6.23;;;;;;;;;;5005186;28;20713;-67
2023/12/16 13:08:29;;;;;;;11.83;6.90;;;;;;;;;;5007851;28;20222;-67
2023/12/16 13:10:54;;;;;;;15.63;7.27;;;;;;;;;;5008366;28;20199;-68
2023/12/16 13:13:20;;;;;;;10.67;6.37;;;;;;;;;;5001428;28;20182;-68
2023/12/16 13:15:46;;;;;;;10.27;6.93;;;;;;;;;;5006647;28;20171;-68
2023/12/16 13:18:12;;;;;;;13.37;6.77;;;;;;;;;;5006380;28;20175;-68
2023/12/16 13:20:38;;;;;;;14.40;5.80;;;;;;;;;;5005765;28;20210;-67
2023/12/16 13:23:03;;;;;;;10.87;6.47;;;;;;;;;;5004734;28;20285;-68
2023/12/16 13:25:28;;;;;;;8.83;6.67;;;;;;;;;;5004303;28;20273;-68
2023/12/16 13:27:53;;;;;;;12.50;6.40;;;;;;;;;;5003389;28;20183;-68
2023/12/16 13:30:19;;;;;;;12.73;6.87;;;;;;;;;;5008744;28;20182;-67
2023/12/16 13:32:44;;;;;;;12.13;6.83;;;;;;;;;;5003722;28;20240;-67
2023/12/16 13:35:09;;;;;;;14.07;6.30;;;;;;;;;;5010344;28;20214;-67
2023/12/16 13:37:34;;;;;;;14.90;7.53;;;;;;;;;;5002294;28;20241;-67
2023/12/16 13:40:00;;;;;;;10.40;6.38;;;;;;;;;;5010075;28;20215;-68
2023/12/16 13:42:26;;;;;;;9.80;5.63;;;;;;;;;;5009947;28;20228;-67
2023/12/16 13:44:51;;;;;;;12.17;6.13;;;;;;;;;;5005624;28;20257;-68
2023/12/16 13:47:19;;;;;;;9.83;6.00;;;;;;;;;;5002050;28;20638;-68
2023/12/16 13:49:44;;;;;;;8.83;5.00;;;;;;;;;;5002450;28;20192;-68
2023/12/16 13:52:10;;;;;;;12.13;6.70;;;;;;;;;;5007830;28;20256;-67
2023/12/16 13:54:35;;;;;;;8.30;6.53;;;;;;;;;;5006440;28;20195;-68
2023/12/16 13:57:01;;;;;;;9.80;6.03;;;;;;;;;;5010949;28;20634;-68
2023/12/16 13:59:26;;;;;;;8.47;5.93;;;;;;;;;;5008087;28;20662;-68
2023/12/16 14:01:51;;;;;;;8.20;5.87;;;;;;;;;;5003782;28;20668;-69
2023/12/16 14:04:16;;;;;;;9.83;5.23;;;;;;;;;;5001688;28;20243;-68
2023/12/16 14:06:42;;;;;;;9.57;5.73;;;;;;;;;;5007943;28;20189;-68
2023/12/16 14:09:07;;;;;;;8.20;5.87;;;;;;;;;;5004803;28;20269;-68
2023/12/16 14:11:32;;;;;;;11.97;6.67;;;;;;;;;;5009581;28;20187;-67
2023/12/16 14:13:58;;;;;;;8.07;5.77;;;;;;;;;;5008360;28;20209;-69
2023/12/16 14:16:23;;;;;;;16.87;6.80;;;;;;;;;;5008018;28;20306;-68
2023/12/16 14:18:48;;;;;;;11.73;6.70;;;;;;;;;;5003372;28;20175;-68
2023/12/16 14:21:14;;;;;;;11.70;5.87;;;;;;;;;;5001502;28;20206;-68
2023/12/16 14:23:39;;;;;;;10.73;6.57;;;;;;;;;;5005606;28;20194;-67